createdAt,value
2016-08-05T00:00:00.448Z,1008.39
2016-08-05T00:01:00.443Z,1008.36
2016-08-05T00:02:00.447Z,1008.34
2016-08-05T00:03:00.444Z,1008.31
2016-08-05T00:04:00.442Z,1008.29
2016-08-05T00:05:00.443Z,1008.28
2016-08-05T00:06:00.435Z,1008.28
2016-08-05T00:07:00.432Z,1008.27
2016-08-05T00:08:00.430Z,1008.28
2016-08-05T00:09:00.430Z,1008.25
2016-08-05T00:11:00.429Z,1008.23
2016-08-05T00:12:00.419Z,1008.24
2016-08-05T00:13:00.417Z,1008.2
2016-08-05T00:14:00.421Z,1008.21
2016-08-05T00:15:00.415Z,1008.21
2016-08-05T00:16:00.414Z,1008.17
2016-08-05T00:17:00.414Z,1008.16
2016-08-05T00:18:00.411Z,1008.17
2016-08-05T00:19:00.408Z,1008.15
2016-08-05T00:20:00.406Z,1008.11
2016-08-05T00:21:00.405Z,1008.07
2016-08-05T00:22:00.402Z,1008.06
2016-08-05T00:23:00.398Z,1008.1
2016-08-05T00:24:00.399Z,1008.09
2016-08-05T00:25:00.398Z,1008.13
2016-08-05T00:26:00.393Z,1008.12
2016-08-05T00:27:00.396Z,1008.16
2016-08-05T00:28:00.391Z,1008.14
2016-08-05T00:29:00.384Z,1008.15
2016-08-05T00:30:00.385Z,1008.2
2016-08-05T00:31:00.384Z,1008.22
2016-08-05T00:32:00.381Z,1008.28
2016-08-05T00:33:00.389Z,1008.28
2016-08-05T00:34:00.376Z,1008.31
2016-08-05T00:35:00.378Z,1008.36
2016-08-05T00:36:00.372Z,1008.36
2016-08-05T00:37:00.368Z,1008.39
2016-08-05T00:38:00.370Z,1008.37
2016-08-05T00:39:00.370Z,1008.39
2016-08-05T00:40:00.365Z,1008.42
2016-08-05T00:41:00.361Z,1008.43
2016-08-05T00:42:00.361Z,1008.46
2016-08-05T00:43:00.359Z,1008.51
2016-08-05T00:44:00.355Z,1008.52
2016-08-05T00:45:00.353Z,1008.59
2016-08-05T00:46:00.348Z,1008.63
2016-08-05T00:47:00.349Z,1008.67
2016-08-05T00:48:00.346Z,1008.69
2016-08-05T00:49:00.341Z,1008.7
2016-08-05T00:50:00.341Z,1008.69
2016-08-05T00:51:00.342Z,1008.66
2016-08-05T00:52:00.339Z,1008.67
2016-08-05T00:53:00.336Z,1008.67
2016-08-05T00:54:00.334Z,1008.6
2016-08-05T00:55:00.334Z,1008.61
2016-08-05T00:56:00.328Z,1008.62
2016-08-05T00:57:00.328Z,1008.64
2016-08-05T00:58:00.326Z,1008.61
2016-08-05T00:59:00.320Z,1008.58
2016-08-05T01:00:00.318Z,1008.6
2016-08-05T01:01:00.318Z,1008.57
2016-08-05T01:02:00.316Z,1008.52
2016-08-05T01:03:00.311Z,1008.53
2016-08-05T01:04:00.316Z,1008.55
2016-08-05T01:05:00.311Z,1008.57
2016-08-05T01:06:00.307Z,1008.58
2016-08-05T01:07:00.506Z,1008.6
2016-08-05T01:08:00.304Z,1008.6
2016-08-05T01:09:00.303Z,1008.6
2016-08-05T01:10:00.298Z,1008.66
2016-08-05T01:11:00.495Z,1008.62
2016-08-05T01:12:00.290Z,1008.68
2016-08-05T01:13:00.291Z,1008.69
2016-08-05T01:14:00.286Z,1008.71
2016-08-05T01:15:00.288Z,1008.68
2016-08-05T01:16:00.286Z,1008.67
2016-08-05T01:17:00.284Z,1008.66
2016-08-05T01:18:00.278Z,1008.62
2016-08-05T01:19:00.278Z,1008.62
2016-08-05T01:20:00.274Z,1008.6
2016-08-05T01:21:00.270Z,1008.57
2016-08-05T01:22:00.272Z,1008.58
2016-08-05T01:23:00.268Z,1008.61
2016-08-05T01:24:00.267Z,1008.61
2016-08-05T01:25:00.266Z,1008.61
2016-08-05T01:26:00.259Z,1008.64
2016-08-05T01:27:00.258Z,1008.71
2016-08-05T01:28:00.256Z,1008.71
2016-08-05T01:29:00.255Z,1008.69
2016-08-05T01:30:00.254Z,1008.69
2016-08-05T01:31:00.252Z,1008.73
2016-08-05T01:32:00.246Z,1008.72
2016-08-05T01:33:00.251Z,1008.72
2016-08-05T01:34:00.241Z,1008.74
2016-08-05T01:35:00.241Z,1008.66
2016-08-05T01:36:00.238Z,1008.68
2016-08-05T01:37:00.437Z,1008.68
2016-08-05T01:38:00.234Z,1008.67
2016-08-05T01:39:00.232Z,1008.68
2016-08-05T01:40:00.228Z,1008.69
2016-08-05T01:41:00.426Z,1008.7
2016-08-05T01:42:00.226Z,1008.7
2016-08-05T01:43:00.221Z,1008.71
2016-08-05T01:44:00.221Z,1008.69
2016-08-05T01:45:00.421Z,1008.73
2016-08-05T01:46:00.218Z,1008.74
2016-08-05T01:47:00.214Z,1008.75
2016-08-05T01:48:00.207Z,1008.71
2016-08-05T01:49:00.206Z,1008.74
2016-08-05T01:50:00.209Z,1008.74
2016-08-05T01:51:00.203Z,1008.77
2016-08-05T01:52:00.200Z,1008.74
2016-08-05T01:53:00.201Z,1008.75
2016-08-05T01:54:00.197Z,1008.72
2016-08-05T01:55:00.190Z,1008.68
2016-08-05T01:56:00.193Z,1008.65
2016-08-05T01:57:00.188Z,1008.65
2016-08-05T01:58:00.190Z,1008.64
2016-08-05T01:59:00.186Z,1008.67
2016-08-05T02:00:00.184Z,1008.67
2016-08-05T02:01:00.185Z,1008.68
2016-08-05T02:02:00.187Z,1008.63
2016-08-05T02:03:00.178Z,1008.63
2016-08-05T02:04:00.184Z,1008.62
2016-08-05T02:05:00.171Z,1008.57
2016-08-05T02:06:00.167Z,1008.58
2016-08-05T02:07:00.166Z,1008.6
2016-08-05T02:08:00.160Z,1008.62
2016-08-05T02:09:00.163Z,1008.65
2016-08-05T02:10:00.159Z,1008.66
2016-08-05T02:11:00.159Z,1008.69
2016-08-05T02:12:00.154Z,1008.69
2016-08-05T02:13:00.155Z,1008.68
2016-08-05T02:14:00.150Z,1008.69
2016-08-05T02:15:00.149Z,1008.72
2016-08-05T02:16:00.145Z,1008.72
2016-08-05T02:17:00.144Z,1008.72
2016-08-05T02:18:00.142Z,1008.78
2016-08-05T02:19:00.140Z,1008.73
2016-08-05T02:20:00.135Z,1008.73
2016-08-05T02:21:00.130Z,1008.8
2016-08-05T02:22:00.131Z,1008.85
2016-08-05T02:23:00.126Z,1008.88
2016-08-05T02:24:00.123Z,1008.9
2016-08-05T02:25:00.124Z,1008.92
2016-08-05T02:26:00.121Z,1008.88
2016-08-05T02:27:00.116Z,1008.89
2016-08-05T02:28:00.113Z,1008.87
2016-08-05T02:29:00.116Z,1008.86
2016-08-05T02:30:00.116Z,1008.83
2016-08-05T02:31:00.310Z,1008.85
2016-08-05T02:32:00.106Z,1008.84
2016-08-05T02:33:00.106Z,1008.83
2016-08-05T02:34:00.098Z,1008.84
2016-08-05T02:35:00.102Z,1008.84
2016-08-05T02:36:00.098Z,1008.81
2016-08-05T02:37:00.094Z,1008.84
2016-08-05T02:38:00.092Z,1008.84
2016-08-05T02:39:00.089Z,1008.83
2016-08-05T02:40:00.087Z,1008.83
2016-08-05T02:41:00.084Z,1008.8
2016-08-05T02:42:00.081Z,1008.86
2016-08-05T02:43:00.077Z,1008.87
2016-08-05T02:44:00.075Z,1008.89
2016-08-05T02:45:00.069Z,1008.94
2016-08-05T02:46:00.074Z,1008.97
2016-08-05T02:47:00.072Z,1008.99
2016-08-05T02:48:00.068Z,1009.01
2016-08-05T02:49:00.064Z,1008.99
2016-08-05T02:50:00.062Z,1009.01
2016-08-05T02:51:00.060Z,1008.98
2016-08-05T02:52:00.055Z,1008.96
2016-08-05T02:53:00.053Z,1008.95
2016-08-05T02:54:00.050Z,1008.96
2016-08-05T02:55:00.051Z,1008.94
2016-08-05T02:56:00.043Z,1008.92
2016-08-05T02:57:00.039Z,1008.97
2016-08-05T02:58:00.042Z,1009.02
2016-08-05T02:59:00.040Z,1009.05
2016-08-05T03:00:00.038Z,1009.04
2016-08-05T03:01:00.036Z,1009.07
2016-08-05T03:02:00.032Z,1009.07
2016-08-05T03:03:00.028Z,1009.12
2016-08-05T03:04:00.028Z,1009.14
2016-08-05T03:05:00.022Z,1009.17
2016-08-05T03:06:00.020Z,1009.17
2016-08-05T03:07:00.020Z,1009.24
2016-08-05T03:08:00.014Z,1009.2
2016-08-05T03:09:00.013Z,1009.23
2016-08-05T03:10:00.211Z,1009.23
2016-08-05T03:11:00.005Z,1009.24
2016-08-05T03:12:00.005Z,1009.22
2016-08-05T03:12:59.999Z,1009.23
2016-08-05T03:13:59.998Z,1009.23
2016-08-05T03:14:59.997Z,1009.24
2016-08-05T03:15:59.995Z,1009.24
2016-08-05T03:16:59.991Z,1009.23
2016-08-05T03:17:59.989Z,1009.2
2016-08-05T03:18:59.982Z,1009.21
2016-08-05T03:19:59.985Z,1009.21
2016-08-05T03:21:00.181Z,1009.21
2016-08-05T03:21:59.977Z,1009.2
2016-08-05T03:22:59.975Z,1009.2
2016-08-05T03:24:00.175Z,1009.2
2016-08-05T03:24:59.967Z,1009.19
2016-08-05T03:25:59.968Z,1009.27
2016-08-05T03:26:59.968Z,1009.19
2016-08-05T03:27:59.959Z,1009.23
2016-08-05T03:28:59.962Z,1009.22
2016-08-05T03:29:59.954Z,1009.24
2016-08-05T03:30:59.953Z,1009.2
2016-08-05T03:31:59.952Z,1009.2
2016-08-05T03:32:59.950Z,1009.23
2016-08-05T03:33:59.946Z,1009.26
2016-08-05T03:34:59.943Z,1009.28
2016-08-05T03:35:59.942Z,1009.23
2016-08-05T03:36:59.935Z,1009.23
2016-08-05T03:37:59.935Z,1009.28
2016-08-05T03:38:59.934Z,1009.31
2016-08-05T03:39:59.928Z,1009.29
2016-08-05T03:40:59.930Z,1009.3
2016-08-05T03:41:59.926Z,1009.26
2016-08-05T03:42:59.923Z,1009.3
2016-08-05T03:43:59.920Z,1009.29
2016-08-05T03:44:59.916Z,1009.25
2016-08-05T03:45:59.916Z,1009.22
2016-08-05T03:47:00.113Z,1009.31
2016-08-05T03:47:59.910Z,1009.3
2016-08-05T03:48:59.904Z,1009.32
2016-08-05T03:49:59.906Z,1009.35
2016-08-05T03:50:59.901Z,1009.33
2016-08-05T03:51:59.898Z,1009.37
2016-08-05T03:52:59.896Z,1009.31
2016-08-05T03:53:59.888Z,1009.31
2016-08-05T03:54:59.886Z,1009.32
2016-08-05T03:55:59.886Z,1009.33
2016-08-05T03:56:59.883Z,1009.39
2016-08-05T03:57:59.878Z,1009.34
2016-08-05T03:58:59.878Z,1009.41
2016-08-05T03:59:59.873Z,1009.4
2016-08-05T04:00:59.874Z,1009.37
2016-08-05T04:01:59.866Z,1009.39
2016-08-05T04:02:59.868Z,1009.44
2016-08-05T04:03:59.865Z,1009.42
2016-08-05T04:05:00.063Z,1009.4
2016-08-05T04:05:59.859Z,1009.4
2016-08-05T04:06:59.907Z,1009.44
2016-08-05T04:07:59.854Z,1009.36
2016-08-05T04:08:59.853Z,1009.38
2016-08-05T04:09:59.848Z,1009.38
2016-08-05T04:10:59.845Z,1009.37
2016-08-05T04:11:59.842Z,1009.37
2016-08-05T04:13:00.038Z,1009.36
2016-08-05T04:13:59.833Z,1009.44
2016-08-05T04:14:59.834Z,1009.4
2016-08-05T04:15:59.830Z,1009.37
2016-08-05T04:16:59.825Z,1009.42
2016-08-05T04:17:59.822Z,1009.36
2016-08-05T04:18:59.823Z,1009.35
2016-08-05T04:19:59.816Z,1009.32
2016-08-05T04:20:59.814Z,1009.35
2016-08-05T04:21:59.810Z,1009.37
2016-08-05T04:22:59.806Z,1009.39
2016-08-05T04:23:59.806Z,1009.4
2016-08-05T04:24:59.803Z,1009.4
2016-08-05T04:25:59.802Z,1009.44
2016-08-05T04:26:59.803Z,1009.48
2016-08-05T04:27:59.798Z,1009.46
2016-08-05T04:28:59.792Z,1009.51
2016-08-05T04:29:59.806Z,1009.5
2016-08-05T04:30:59.784Z,1009.54
2016-08-05T04:31:59.785Z,1009.56
2016-08-05T04:32:59.782Z,1009.56
2016-08-05T04:33:59.779Z,1009.54
2016-08-05T04:34:59.778Z,1009.61
2016-08-05T04:35:59.771Z,1009.59
2016-08-05T04:36:59.767Z,1009.6
2016-08-05T04:37:59.766Z,1009.64
2016-08-05T04:38:59.762Z,1009.61
2016-08-05T04:39:59.762Z,1009.58
2016-08-05T04:40:59.755Z,1009.57
2016-08-05T04:41:59.753Z,1009.58
2016-08-05T04:42:59.752Z,1009.59
2016-08-05T04:43:59.748Z,1009.63
2016-08-05T04:44:59.747Z,1009.65
2016-08-05T04:45:59.739Z,1009.7
2016-08-05T04:46:59.737Z,1009.67
2016-08-05T04:47:59.736Z,1009.68
2016-08-05T04:48:59.732Z,1009.7
2016-08-05T04:49:59.729Z,1009.73
2016-08-05T04:50:59.731Z,1009.76
2016-08-05T04:51:59.730Z,1009.82
2016-08-05T04:52:59.722Z,1009.84
2016-08-05T04:53:59.716Z,1009.88
2016-08-05T04:54:59.719Z,1009.88
2016-08-05T04:55:59.712Z,1009.97
2016-08-05T04:56:59.709Z,1009.99
2016-08-05T04:57:59.704Z,1010.02
2016-08-05T04:58:59.700Z,1010.05
2016-08-05T04:59:59.701Z,1010.08
2016-08-05T05:00:59.699Z,1010.04
2016-08-05T05:01:59.893Z,1009.99
2016-08-05T05:02:59.692Z,1010
2016-08-05T05:03:59.886Z,1010.01
2016-08-05T05:04:59.681Z,1010.04
2016-08-05T05:05:59.683Z,1010.01
2016-08-05T05:06:59.683Z,1010.07
2016-08-05T05:07:59.875Z,1010.06
2016-08-05T05:08:59.674Z,1010.11
2016-08-05T05:09:59.674Z,1010.08
2016-08-05T05:10:59.667Z,1010.08
2016-08-05T05:11:59.662Z,1010.06
2016-08-05T05:12:59.658Z,1010.07
2016-08-05T05:13:59.657Z,1010.11
2016-08-05T05:14:59.652Z,1010.09
2016-08-05T05:15:59.654Z,1010.11
2016-08-05T05:16:59.649Z,1010.15
2016-08-05T05:17:59.646Z,1010.16
2016-08-05T05:18:59.641Z,1010.18
2016-08-05T05:19:59.636Z,1010.17
2016-08-05T05:20:59.633Z,1010.2
2016-08-05T05:21:59.635Z,1010.18
2016-08-05T05:22:59.630Z,1010.19
2016-08-05T05:23:59.625Z,1010.26
2016-08-05T05:24:59.624Z,1010.24
2016-08-05T05:26:59.617Z,1010.25
2016-08-05T05:27:59.614Z,1010.24
2016-08-05T05:28:59.612Z,1010.26
2016-08-05T05:29:59.608Z,1010.3
2016-08-05T05:30:59.607Z,1010.25
2016-08-05T05:31:59.603Z,1010.25
2016-08-05T05:32:59.599Z,1010.24
2016-08-05T05:33:59.597Z,1010.24
2016-08-05T05:34:59.593Z,1010.23
2016-08-05T05:35:59.590Z,1010.27
2016-08-05T05:36:59.588Z,1010.33
2016-08-05T05:37:59.584Z,1010.34
2016-08-05T05:38:59.580Z,1010.39
2016-08-05T05:39:59.576Z,1010.43
2016-08-05T05:41:59.571Z,1010.44
2016-08-05T05:42:59.571Z,1010.53
2016-08-05T05:43:59.566Z,1010.54
2016-08-05T05:44:59.564Z,1010.53
2016-08-05T05:45:59.560Z,1010.61
2016-08-05T05:46:59.554Z,1010.62
2016-08-05T05:47:59.552Z,1010.67
2016-08-05T05:48:59.550Z,1010.69
2016-08-05T05:49:59.544Z,1010.7
2016-08-05T05:50:59.544Z,1010.69
2016-08-05T05:51:59.540Z,1010.72
2016-08-05T05:52:59.536Z,1010.74
2016-08-05T05:53:59.533Z,1010.73
2016-08-05T05:54:59.529Z,1010.74
2016-08-05T05:56:59.522Z,1010.72
2016-08-05T05:57:59.524Z,1010.73
2016-08-05T05:58:59.517Z,1010.73
2016-08-05T05:59:59.514Z,1010.73
2016-08-05T06:00:59.511Z,1010.69
2016-08-05T06:01:59.511Z,1010.74
2016-08-05T06:02:59.508Z,1010.75
2016-08-05T06:03:59.501Z,1010.74
2016-08-05T06:04:59.703Z,1010.73
2016-08-05T06:05:59.497Z,1010.78
2016-08-05T06:06:59.498Z,1010.74
2016-08-05T06:07:59.491Z,1010.76
2016-08-05T06:08:59.489Z,1010.76
2016-08-05T06:09:59.484Z,1010.83
2016-08-05T06:10:59.481Z,1010.81
2016-08-05T06:11:59.479Z,1010.87
2016-08-05T06:12:59.474Z,1010.85
2016-08-05T06:13:59.471Z,1010.85
2016-08-05T06:14:59.468Z,1010.88
2016-08-05T06:15:59.466Z,1010.9
2016-08-05T06:16:59.462Z,1010.94
2016-08-05T06:17:59.459Z,1010.93
2016-08-05T06:18:59.455Z,1010.94
2016-08-05T06:19:59.454Z,1010.97
2016-08-05T06:20:59.450Z,1010.98
2016-08-05T06:21:59.443Z,1010.94
2016-08-05T06:22:59.444Z,1010.97
2016-08-05T06:23:59.440Z,1010.93
2016-08-05T06:24:59.436Z,1010.98
2016-08-05T06:25:59.434Z,1010.96
2016-08-05T06:26:59.430Z,1010.99
2016-08-05T06:27:59.427Z,1010.96
2016-08-05T06:28:59.425Z,1010.97
2016-08-05T06:29:59.421Z,1010.96
2016-08-05T06:30:59.418Z,1010.97
2016-08-05T06:31:59.415Z,1010.95
2016-08-05T06:32:59.411Z,1011
2016-08-05T06:33:59.405Z,1010.98
2016-08-05T06:34:59.405Z,1010.97
2016-08-05T06:35:59.398Z,1011.01
2016-08-05T06:36:59.396Z,1011.04
2016-08-05T06:37:59.396Z,1011.08
2016-08-05T06:38:59.392Z,1011.02
2016-08-05T06:39:59.388Z,1011.02
2016-08-05T06:40:59.382Z,1011.03
2016-08-05T06:41:59.382Z,1011.04
2016-08-05T06:42:59.377Z,1011.05
2016-08-05T06:43:59.376Z,1011.05
2016-08-05T06:44:59.372Z,1011.09
2016-08-05T06:45:59.367Z,1011.09
2016-08-05T06:46:59.369Z,1011.08
2016-08-05T06:47:59.367Z,1011.05
2016-08-05T06:48:59.362Z,1011.06
2016-08-05T06:49:59.360Z,1011.07
2016-08-05T06:50:59.358Z,1011.07
2016-08-05T06:51:59.351Z,1011.06
2016-08-05T06:52:59.344Z,1011.07
2016-08-05T06:53:59.345Z,1011.07
2016-08-05T06:54:59.344Z,1011.13
2016-08-05T06:55:59.337Z,1011.12
2016-08-05T06:56:59.329Z,1011.13
2016-08-05T06:57:59.330Z,1011.11
2016-08-05T06:58:59.330Z,1011.1
2016-08-05T06:59:59.327Z,1011.1
2016-08-05T07:00:59.319Z,1011.08
2016-08-05T07:01:59.321Z,1011.13
2016-08-05T07:02:59.313Z,1011.15
2016-08-05T07:03:59.313Z,1011.17
2016-08-05T07:04:59.310Z,1011.15
2016-08-05T07:05:59.306Z,1011.21
2016-08-05T07:06:59.303Z,1011.16
2016-08-05T07:07:59.300Z,1011.19
2016-08-05T07:08:59.295Z,1011.27
2016-08-05T07:09:59.299Z,1011.28
2016-08-05T07:10:59.288Z,1011.29
2016-08-05T07:11:59.285Z,1011.29
2016-08-05T07:12:59.284Z,1011.3
2016-08-05T07:13:59.279Z,1011.29
2016-08-05T07:14:59.270Z,1011.3
2016-08-05T07:15:59.272Z,1011.28
2016-08-05T07:16:59.271Z,1011.27
2016-08-05T07:17:59.265Z,1011.25
2016-08-05T07:18:59.264Z,1011.25
2016-08-05T07:19:59.261Z,1011.26
2016-08-05T07:20:59.257Z,1011.26
2016-08-05T07:21:59.254Z,1011.26
2016-08-05T07:22:59.249Z,1011.29
2016-08-05T07:23:59.248Z,1011.31
2016-08-05T07:24:59.245Z,1011.29
2016-08-05T07:25:59.240Z,1011.27
2016-08-05T07:26:59.236Z,1011.3
2016-08-05T07:27:59.230Z,1011.35
2016-08-05T07:28:59.230Z,1011.4
2016-08-05T07:29:59.225Z,1011.36
2016-08-05T07:30:59.222Z,1011.37
2016-08-05T07:31:59.219Z,1011.47
2016-08-05T07:32:59.219Z,1011.43
2016-08-05T07:33:59.213Z,1011.45
2016-08-05T07:34:59.210Z,1011.45
2016-08-05T07:35:59.210Z,1011.48
2016-08-05T07:36:59.203Z,1011.47
2016-08-05T07:37:59.197Z,1011.49
2016-08-05T07:38:59.195Z,1011.49
2016-08-05T07:39:59.196Z,1011.51
2016-08-05T07:40:59.193Z,1011.54
2016-08-05T07:41:59.190Z,1011.54
2016-08-05T07:42:59.187Z,1011.54
2016-08-05T07:43:59.180Z,1011.54
2016-08-05T07:44:59.177Z,1011.52
2016-08-05T07:45:59.183Z,1011.52
2016-08-05T07:46:59.172Z,1011.55
2016-08-05T07:47:59.170Z,1011.51
2016-08-05T07:48:59.164Z,1011.59
2016-08-05T07:49:59.164Z,1011.58
2016-08-05T07:50:59.162Z,1011.56
2016-08-05T07:51:59.157Z,1011.62
2016-08-05T07:52:59.154Z,1011.63
2016-08-05T07:53:59.146Z,1011.63
2016-08-05T07:54:59.147Z,1011.58
2016-08-05T07:55:59.145Z,1011.58
2016-08-05T07:56:59.142Z,1011.61
2016-08-05T07:57:59.135Z,1011.58
2016-08-05T07:58:59.134Z,1011.61
2016-08-05T07:59:59.129Z,1011.61
2016-08-05T08:00:59.128Z,1011.64
2016-08-05T08:01:59.132Z,1011.69
2016-08-05T08:02:59.121Z,1011.73
2016-08-05T08:03:59.114Z,1011.71
2016-08-05T08:04:59.116Z,1011.69
2016-08-05T08:05:59.111Z,1011.71
2016-08-05T08:06:59.159Z,1011.75
2016-08-05T08:07:59.103Z,1011.69
2016-08-05T08:08:59.104Z,1011.74
2016-08-05T08:09:59.094Z,1011.7
2016-08-05T08:10:59.095Z,1011.7
2016-08-05T08:11:59.093Z,1011.66
2016-08-05T08:12:59.289Z,1011.72
2016-08-05T08:13:59.086Z,1011.69
2016-08-05T08:14:59.081Z,1011.72
2016-08-05T08:15:59.076Z,1011.73
2016-08-05T08:16:59.076Z,1011.75
2016-08-05T08:17:59.074Z,1011.77
2016-08-05T08:18:59.071Z,1011.77
2016-08-05T08:19:59.068Z,1011.76
2016-08-05T08:20:59.060Z,1011.77
2016-08-05T08:21:59.061Z,1011.77
2016-08-05T08:22:59.057Z,1011.78
2016-08-05T08:23:59.054Z,1011.81
2016-08-05T09:59:58.078Z,1012.77
2016-08-05T10:01:11.367Z,1012.71
2016-08-05T10:02:24.341Z,1012.76
2016-08-05T10:45:50.061Z,1013.97
2016-08-05T10:47:03.368Z,1013.06
2016-08-05T10:48:24.938Z,1014.59
2016-08-05T10:49:57.247Z,1013.92
2016-08-05T10:51:29.329Z,1013.71
2016-08-05T10:52:44.388Z,1013.41
2016-08-05T10:53:58.019Z,1014.71
2016-08-05T10:55:10.999Z,1014.88
2016-08-05T10:56:23.973Z,1013.54
2016-08-05T10:57:36.953Z,1013.4
2016-08-05T10:58:49.943Z,1013.37
2016-08-05T11:00:02.920Z,1013.33
2016-08-05T11:01:18.187Z,1013.25
2016-08-05T11:02:51.396Z,1013.48
2016-08-05T11:04:04.382Z,1015.07
2016-08-05T11:05:17.383Z,1015.23
2016-08-05T11:06:30.566Z,1013.4
2016-08-05T11:07:43.751Z,1013.32
2016-08-05T11:08:56.942Z,1013.3
2016-08-05T11:10:16.663Z,1013.32
2016-08-05T11:13:25.971Z,1015.18
2016-08-05T11:15:04.895Z,1013.89
2016-08-05T11:16:32.816Z,1013.74
2016-08-05T11:18:02.705Z,1013.74
2016-08-05T11:19:21.039Z,1013.76
2016-08-05T11:20:38.677Z,1013.8
2016-08-05T11:21:51.664Z,1013.68
2016-08-05T11:23:04.654Z,1013.78
2016-08-05T11:24:17.657Z,1013.77
2016-08-05T11:25:30.648Z,1013.77
2016-08-05T11:26:43.833Z,1013.79
2016-08-05T11:27:55.633Z,1013.92
2016-08-05T11:29:08.627Z,1013.64
2016-08-05T11:30:21.605Z,1013.54
2016-08-05T11:31:34.585Z,1013.57
2016-08-05T11:32:47.768Z,1013.49
2016-08-05T11:34:00.966Z,1013.6
2016-08-05T11:35:13.951Z,1013.46
2016-08-05T11:36:26.935Z,1013.37
2016-08-05T11:37:39.918Z,1013.42
2016-08-05T11:38:52.905Z,1013.59
2016-08-05T11:40:05.911Z,1013.81
2016-08-05T11:41:18.895Z,1013.61
2016-08-05T11:42:31.890Z,1013.34
2016-08-05T11:43:44.876Z,1013.36
2016-08-05T11:44:57.861Z,1013.47
2016-08-05T11:46:10.840Z,1013.3
2016-08-05T11:47:24.231Z,1013.49
2016-08-05T11:48:37.208Z,1013.58
2016-08-05T11:49:50.195Z,1013.35
2016-08-05T11:51:03.178Z,1013.56
2016-08-05T11:52:16.159Z,1013.35
2016-08-05T11:53:29.141Z,1013.57
2016-08-05T11:54:42.135Z,1013.51
2016-08-05T11:55:55.134Z,1013.31
2016-08-05T11:58:20.638Z,1013.45
2016-08-05T11:59:34.031Z,1013.44
2016-08-05T12:00:47.011Z,1013.41
2016-08-05T12:02:00.191Z,1013.5
2016-08-05T12:03:13.174Z,1013.32
2016-08-05T12:04:26.155Z,1013.18
2016-08-05T12:05:39.141Z,1013.17
2016-08-05T12:06:52.340Z,1013.11
2016-08-05T12:08:05.324Z,1013.24
2016-08-05T12:09:18.314Z,1013.16
2016-08-05T12:10:31.308Z,1013.25
2016-08-05T12:11:44.294Z,1013.36
2016-08-05T12:12:57.276Z,1013.48
2016-08-05T12:14:10.265Z,1013.43
2016-08-05T12:15:23.240Z,1013.34
2016-08-05T12:16:36.230Z,1013.37
2016-08-05T12:17:49.215Z,1013.37
2016-08-05T12:19:02.415Z,1013.33
2016-08-05T12:20:15.397Z,1013.36
2016-08-05T12:21:28.372Z,1013.41
2016-08-05T12:22:41.372Z,1013.57
2016-08-05T12:23:54.561Z,1013.41
2016-08-05T12:25:07.539Z,1013.44
2016-08-05T12:26:20.521Z,1013.49
2016-08-05T12:27:33.500Z,1013.6
2016-08-05T12:28:46.480Z,1013.56
2016-08-05T12:29:59.666Z,1013.55
2016-08-05T12:31:12.680Z,1013.47
2016-08-05T12:32:25.674Z,1013.66
2016-08-05T12:33:38.663Z,1013.79
2016-08-05T12:34:51.851Z,1013.74
2016-08-05T12:36:05.037Z,1013.73
2016-08-05T12:37:18.027Z,1013.66
2016-08-05T12:38:31.015Z,1013.54
2016-08-05T12:39:44.023Z,1013.47
2016-08-05T12:40:57.020Z,1013.46
2016-08-05T12:42:10.195Z,1013.47
2016-08-05T12:43:21.533Z,1013.54
2016-08-05T12:44:34.739Z,1013.64
2016-08-05T12:45:47.724Z,1013.86
2016-08-05T12:47:00.708Z,1013.67
2016-08-05T12:48:13.887Z,1013.71
2016-08-05T12:49:26.865Z,1013.53
2016-08-05T12:50:39.845Z,1013.71
2016-08-05T12:51:52.833Z,1013.7
2016-08-05T12:53:06.025Z,1013.75
2016-08-05T12:54:19.003Z,1013.81
2016-08-05T12:55:32.183Z,1013.79
2016-08-05T12:56:45.154Z,1013.82
2016-08-05T12:57:58.139Z,1013.84
2016-08-05T12:59:11.119Z,1013.94
2016-08-05T13:00:24.100Z,1013.92
2016-08-05T13:01:37.091Z,1013.95
2016-08-05T13:02:50.062Z,1013.88
2016-08-05T13:04:03.240Z,1013.88
2016-08-05T13:05:16.219Z,1013.91
2016-08-05T13:06:29.409Z,1013.98
2016-08-05T13:07:42.390Z,1014.03
2016-08-05T13:08:55.379Z,1014.01
2016-08-05T13:10:08.372Z,1014.09
2016-08-05T13:11:21.353Z,1014.11
2016-08-05T13:12:34.339Z,1014.16
2016-08-05T13:13:47.316Z,1014.15
2016-08-05T13:15:00.491Z,1014.23
2016-08-05T13:16:13.476Z,1014.26
2016-08-05T13:17:26.461Z,1014.27
2016-08-05T13:18:39.443Z,1014.29
2016-08-05T13:19:52.628Z,1014.27
2016-08-05T13:21:05.603Z,1014.32
2016-08-05T13:22:18.591Z,1014.35
2016-08-05T13:23:31.566Z,1014.31
2016-08-05T13:24:44.561Z,1014.27
2016-08-05T13:25:57.740Z,1014.23
2016-08-05T13:27:10.742Z,1014.29
2016-08-05T13:28:22.796Z,1014.34
2016-08-05T13:29:35.777Z,1014.4
2016-08-05T13:30:48.750Z,1014.4
2016-08-05T13:32:01.720Z,1014.36
2016-08-05T13:33:14.689Z,1014.46
2016-08-05T13:34:27.676Z,1014.48
2016-08-05T13:35:40.651Z,1014.57
2016-08-05T13:36:53.633Z,1014.56
2016-08-05T13:38:06.616Z,1014.58
2016-08-05T13:39:19.600Z,1014.56
2016-08-05T13:40:32.582Z,1014.51
2016-08-05T13:41:45.577Z,1014.45
2016-08-05T13:42:58.554Z,1014.46
2016-08-05T13:44:11.527Z,1014.36
2016-08-05T13:45:24.518Z,1014.41
2016-08-05T13:46:37.502Z,1014.39
2016-08-05T13:47:50.484Z,1014.4
2016-08-05T13:49:03.468Z,1014.38
2016-08-05T13:50:16.449Z,1014.27
2016-08-05T13:51:29.490Z,1014.26
2016-08-05T13:52:42.467Z,1014.27
2016-08-05T13:53:55.465Z,1014.2
2016-08-05T13:55:08.447Z,1014.14
2016-08-05T13:56:21.434Z,1014.11
2016-08-05T13:57:34.410Z,1014.1
2016-08-05T13:58:47.392Z,1014.14
2016-08-05T14:00:00.379Z,1014.09
2016-08-05T14:01:13.372Z,1014.01
2016-08-05T14:02:26.556Z,1013.99
2016-08-05T14:03:39.539Z,1014.01
2016-08-05T14:04:52.516Z,1013.95
2016-08-05T14:06:05.500Z,1013.98
2016-08-05T14:07:18.472Z,1014.02
2016-08-05T14:08:31.459Z,1013.97
2016-08-05T14:09:44.446Z,1014
2016-08-05T14:10:57.431Z,1014.03
2016-08-05T14:12:10.614Z,1014.02
2016-08-05T14:13:23.589Z,1014.07
2016-08-05T14:14:36.777Z,1014.06
2016-08-05T14:15:49.757Z,1014.11
2016-08-05T14:17:02.743Z,1014.16
2016-08-05T14:18:15.791Z,1014.13
2016-08-05T14:19:28.765Z,1014.12
2016-08-05T14:20:41.753Z,1014.17
2016-08-05T14:21:54.931Z,1014.18
2016-08-05T14:23:07.919Z,1014.11
2016-08-05T14:24:20.891Z,1014.09
2016-08-05T14:25:33.868Z,1014.08
2016-08-05T14:26:46.846Z,1014.05
2016-08-05T14:27:59.821Z,1014.02
2016-08-05T14:29:12.953Z,1014.03
2016-08-05T14:30:25.933Z,1014.01
2016-08-05T14:31:38.911Z,1014.04
2016-08-05T14:32:51.889Z,1014.1
2016-08-05T14:34:04.893Z,1014.12
2016-08-05T14:35:17.870Z,1014.12
2016-08-05T14:36:31.055Z,1014.13
2016-08-05T14:37:44.050Z,1014.12
2016-08-05T14:38:57.240Z,1014.11
2016-08-05T14:40:10.424Z,1014.1
2016-08-05T14:41:23.609Z,1014.13
2016-08-05T14:43:48.179Z,1014.17
2016-08-05T14:45:01.167Z,1014.22
2016-08-05T14:46:14.145Z,1014.25
2016-08-05T14:47:27.127Z,1014.25
2016-08-05T14:48:40.107Z,1014.24
2016-08-05T14:49:53.089Z,1014.24
2016-08-05T14:51:06.068Z,1014.25
2016-08-05T14:52:19.101Z,1014.22
2016-08-05T14:53:32.078Z,1014.18
2016-08-05T14:54:45.261Z,1014.27
2016-08-05T14:55:58.241Z,1014.25
2016-08-05T14:57:11.213Z,1014.26
2016-08-05T14:58:24.399Z,1014.23
2016-08-05T14:59:37.381Z,1014.3
2016-08-05T15:00:50.363Z,1014.24
2016-08-05T15:02:03.339Z,1014.22
2016-08-05T15:03:16.319Z,1014.24
2016-08-05T15:04:29.297Z,1014.25
2016-08-05T15:05:42.280Z,1014.16
2016-08-05T15:06:55.264Z,1014.22
2016-08-05T15:08:08.255Z,1014.23
2016-08-05T15:09:21.242Z,1014.26
2016-08-05T15:10:34.224Z,1014.28
2016-08-05T15:11:47.210Z,1014.29
2016-08-05T15:13:00.188Z,1014.25
2016-08-05T15:14:13.370Z,1014.31
2016-08-05T15:15:26.374Z,1014.27
2016-08-05T15:16:39.365Z,1014.31
2016-08-05T15:17:52.356Z,1014.32
2016-08-05T15:19:05.332Z,1014.38
2016-08-05T15:20:18.312Z,1014.37
2016-08-05T15:21:31.293Z,1014.36
2016-08-05T15:22:44.276Z,1014.35
2016-08-05T15:23:57.457Z,1014.33
2016-08-05T15:25:10.437Z,1014.31